sensor_id;sensor_type;location;lat;lon;timestamp;pressure;altitude;pressure_sealevel;temperature;humidity
22440;BME280;11387;51.612;7.210;2024-02-21T00:01:15;162357.31;;;8.10;100.00
22440;BME280;11387;51.612;7.210;2024-02-21T00:03:39;162377.34;;;8.18;100.00
22440;BME280;11387;51.612;7.210;2024-02-21T00:06:04;162384.03;;;8.21;100.00
22440;BME280;11387;51.612;7.210;2024-02-21T00:08:27;162353.31;;;8.09;100.00
22440;BME280;11387;51.612;7.210;2024-02-21T00:10:51;162370.69;;;8.16;100.00
22440;BME280;11387;51.612;7.210;2024-02-21T00:13:15;162372.00;;;8.16;100.00
22440;BME280;11387;51.612;7.210;2024-02-21T00:15:41;162355.97;;;8.10;100.00
22440;BME280;11387;51.612;7.210;2024-02-21T00:18:06;162357.31;;;8.10;100.00
22440;BME280;11387;51.612;7.210;2024-02-21T00:20:29;162351.97;;;8.08;100.00
22440;BME280;11387;51.612;7.210;2024-02-21T00:22:53;162347.97;;;8.07;100.00
22440;BME280;11387;51.612;7.210;2024-02-21T00:25:17;162345.31;;;8.06;100.00
22440;BME280;11387;51.612;7.210;2024-02-21T00:27:41;162342.63;;;8.05;100.00
22440;BME280;11387;51.612;7.210;2024-02-21T00:30:06;162338.63;;;8.03;100.00
22440;BME280;11387;51.612;7.210;2024-02-21T00:32:30;162326.59;;;7.99;100.00
22440;BME280;11387;51.612;7.210;2024-02-21T00:34:56;162353.31;;;8.09;100.00
22440;BME280;11387;51.612;7.210;2024-02-21T00:37:20;162358.66;;;8.11;100.00
22440;BME280;11387;51.612;7.210;2024-02-21T00:39:44;162384.03;;;8.21;100.00
22440;BME280;11387;51.612;7.210;2024-02-21T00:42:10;162365.34;;;8.14;100.00
22440;BME280;11387;51.612;7.210;2024-02-21T00:44:34;162349.31;;;8.07;100.00
22440;BME280;11387;51.612;7.210;2024-02-21T00:46:57;162347.97;;;8.07;100.00
22440;BME280;11387;51.612;7.210;2024-02-21T00:49:21;162350.66;;;8.08;100.00
22440;BME280;11387;51.612;7.210;2024-02-21T00:51:46;162335.94;;;8.02;100.00
22440;BME280;11387;51.612;7.210;2024-02-21T00:54:10;162339.97;;;8.04;100.00
22440;BME280;11387;51.612;7.210;2024-02-21T00:56:34;162334.63;;;8.02;100.00
22440;BME280;11387;51.612;7.210;2024-02-21T00:58:57;162338.63;;;8.03;100.00
22440;BME280;11387;51.612;7.210;2024-02-21T01:01:22;162326.59;;;7.99;100.00
22440;BME280;11387;51.612;7.210;2024-02-21T01:03:45;162318.59;;;7.96;100.00
22440;BME280;11387;51.612;7.210;2024-02-21T01:06:09;162310.63;;;7.93;100.00
22440;BME280;11387;51.612;7.210;2024-02-21T01:08:34;162325.28;;;7.98;100.00
22440;BME280;11387;51.612;7.210;2024-02-21T01:10:57;162323.94;;;7.98;100.00
22440;BME280;11387;51.612;7.210;2024-02-21T01:13:21;162335.94;;;8.02;100.00
22440;BME280;11387;51.612;7.210;2024-02-21T01:15:45;162337.28;;;8.03;100.00
22440;BME280;11387;51.612;7.210;2024-02-21T01:18:08;162334.63;;;8.02;100.00
22440;BME280;11387;51.612;7.210;2024-02-21T01:20:32;162309.28;;;7.92;100.00
22440;BME280;11387;51.612;7.210;2024-02-21T01:22:55;162327.94;;;7.99;100.00
22440;BME280;11387;51.612;7.210;2024-02-21T01:25:21;162325.28;;;7.98;100.00
22440;BME280;11387;51.612;7.210;2024-02-21T01:27:44;162331.94;;;8.01;100.00
22440;BME280;11387;51.612;7.210;2024-02-21T01:30:08;162354.66;;;8.09;100.00
22440;BME280;11387;51.612;7.210;2024-02-21T01:32:32;162339.97;;;8.04;100.00
22440;BME280;11387;51.612;7.210;2024-02-21T01:34:56;162349.31;;;8.07;100.00
22440;BME280;11387;51.612;7.210;2024-02-21T01:37:20;162341.28;;;8.04;100.00
22440;BME280;11387;51.612;7.210;2024-02-21T01:39:44;162346.63;;;8.06;100.00
22440;BME280;11387;51.612;7.210;2024-02-21T01:42:08;162318.59;;;7.96;100.00
22440;BME280;11387;51.612;7.210;2024-02-21T01:44:32;162342.63;;;8.05;100.00
22440;BME280;11387;51.612;7.210;2024-02-21T01:46:56;162343.97;;;8.05;100.00
22440;BME280;11387;51.612;7.210;2024-02-21T01:49:20;162362.66;;;8.13;100.00
22440;BME280;11387;51.612;7.210;2024-02-21T01:51:45;162357.31;;;8.10;100.00
22440;BME280;11387;51.612;7.210;2024-02-21T01:54:09;162364.00;;;8.13;100.00
22440;BME280;11387;51.612;7.210;2024-02-21T01:56:33;162341.28;;;8.04;100.00
22440;BME280;11387;51.612;7.210;2024-02-21T01:58:59;162345.31;;;8.06;100.00
22440;BME280;11387;51.612;7.210;2024-02-21T02:01:22;162347.97;;;8.07;100.00
22440;BME280;11387;51.612;7.210;2024-02-21T02:03:46;162345.31;;;8.06;100.00
22440;BME280;11387;51.612;7.210;2024-02-21T02:06:10;162355.97;;;8.10;100.00
22440;BME280;11387;51.612;7.210;2024-02-21T02:08:34;162355.97;;;8.10;100.00
22440;BME280;11387;51.612;7.210;2024-02-21T02:10:57;162333.28;;;8.01;100.00
22440;BME280;11387;51.612;7.210;2024-02-21T02:13:21;162355.97;;;8.10;100.00
22440;BME280;11387;51.612;7.210;2024-02-21T02:15:49;162334.63;;;8.02;100.00
22440;BME280;11387;51.612;7.210;2024-02-21T02:18:13;162338.63;;;8.03;100.00
22440;BME280;11387;51.612;7.210;2024-02-21T02:20:38;162337.28;;;8.03;100.00
22440;BME280;11387;51.612;7.210;2024-02-21T02:23:06;162326.59;;;7.99;100.00
22440;BME280;11387;51.612;7.210;2024-02-21T02:25:31;162311.97;;;7.93;100.00
22440;BME280;11387;51.612;7.210;2024-02-21T02:27:55;162310.63;;;7.93;100.00
22440;BME280;11387;51.612;7.210;2024-02-21T02:30:18;162314.63;;;7.94;100.00
22440;BME280;11387;51.612;7.210;2024-02-21T02:32:44;162299.94;;;7.89;100.00
22440;BME280;11387;51.612;7.210;2024-02-21T02:35:08;162305.28;;;7.91;100.00
22440;BME280;11387;51.612;7.210;2024-02-21T02:37:31;162289.25;;;7.85;100.00
22440;BME280;11387;51.612;7.210;2024-02-21T02:39:55;162298.63;;;7.88;100.00
22440;BME280;11387;51.612;7.210;2024-02-21T02:42:20;162291.94;;;7.86;100.00
22440;BME280;11387;51.612;7.210;2024-02-21T02:44:43;162293.28;;;7.86;100.00
22440;BME280;11387;51.612;7.210;2024-02-21T02:47:08;162278.59;;;7.81;100.00
22440;BME280;11387;51.612;7.210;2024-02-21T02:49:31;162286.59;;;7.84;100.00
22440;BME280;11387;51.612;7.210;2024-02-21T02:51:55;162277.25;;;7.80;100.00
22440;BME280;11387;51.612;7.210;2024-02-21T02:54:19;162283.94;;;7.83;100.00
22440;BME280;11387;51.612;7.210;2024-02-21T02:56:42;162265.22;;;7.75;100.00
22440;BME280;11387;51.612;7.210;2024-02-21T02:59:07;162265.22;;;7.75;100.00
22440;BME280;11387;51.612;7.210;2024-02-21T03:01:33;162273.25;;;7.78;100.00
22440;BME280;11387;51.612;7.210;2024-02-21T03:03:57;162267.91;;;7.76;100.00
22440;BME280;11387;51.612;7.210;2024-02-21T03:06:20;162271.91;;;7.78;100.00
22440;BME280;11387;51.612;7.210;2024-02-21T03:08:44;162253.22;;;7.71;100.00
22440;BME280;11387;51.612;7.210;2024-02-21T03:11:08;162279.91;;;7.81;100.00
22440;BME280;11387;51.612;7.210;2024-02-21T03:13:33;162299.94;;;7.89;100.00
22440;BME280;11387;51.612;7.210;2024-02-21T03:15:58;162286.59;;;7.84;100.00
22440;BME280;11387;51.612;7.210;2024-02-21T03:18:22;162275.91;;;7.80;100.00
22440;BME280;11387;51.612;7.210;2024-02-21T03:20:45;162289.25;;;7.85;100.00
22440;BME280;11387;51.612;7.210;2024-02-21T03:23:09;162273.25;;;7.78;100.00
22440;BME280;11387;51.612;7.210;2024-02-21T03:25:33;162266.56;;;7.76;100.00
22440;BME280;11387;51.612;7.210;2024-02-21T03:27:56;162266.56;;;7.76;100.00
22440;BME280;11387;51.612;7.210;2024-02-21T03:30:20;162295.94;;;7.87;100.00
22440;BME280;11387;51.612;7.210;2024-02-21T03:32:45;162289.25;;;7.85;100.00
22440;BME280;11387;51.612;7.210;2024-02-21T03:35:08;162279.91;;;7.81;100.00
22440;BME280;11387;51.612;7.210;2024-02-21T03:37:32;162289.25;;;7.85;100.00
22440;BME280;11387;51.612;7.210;2024-02-21T03:39:56;162289.25;;;7.85;100.00
22440;BME280;11387;51.612;7.210;2024-02-21T03:42:19;162277.25;;;7.80;100.00
22440;BME280;11387;51.612;7.210;2024-02-21T03:44:43;162289.25;;;7.85;100.00
22440;BME280;11387;51.612;7.210;2024-02-21T03:47:07;162309.28;;;7.92;100.00
22440;BME280;11387;51.612;7.210;2024-02-21T03:49:34;162289.25;;;7.85;100.00
22440;BME280;11387;51.612;7.210;2024-02-21T03:51:58;162289.25;;;7.85;100.00
22440;BME280;11387;51.612;7.210;2024-02-21T03:54:21;162297.28;;;7.88;100.00
22440;BME280;11387;51.612;7.210;2024-02-21T03:56:45;162299.94;;;7.89;100.00
22440;BME280;11387;51.612;7.210;2024-02-21T03:59:09;162307.97;;;7.92;100.00
22440;BME280;11387;51.612;7.210;2024-02-21T04:01:33;162306.63;;;7.91;100.00
22440;BME280;11387;51.612;7.210;2024-02-21T04:03:58;162303.94;;;7.90;100.00
22440;BME280;11387;51.612;7.210;2024-02-21T04:06:23;162297.28;;;7.88;100.00
22440;BME280;11387;51.612;7.210;2024-02-21T04:08:46;162303.94;;;7.90;100.00
22440;BME280;11387;51.612;7.210;2024-02-21T04:11:10;162321.25;;;7.97;100.00
22440;BME280;11387;51.612;7.210;2024-02-21T04:13:34;162318.59;;;7.96;100.00
22440;BME280;11387;51.612;7.210;2024-02-21T04:15:57;162307.97;;;7.92;100.00
22440;BME280;11387;51.612;7.210;2024-02-21T04:18:21;162325.28;;;7.98;100.00
22440;BME280;11387;51.612;7.210;2024-02-21T04:20:45;162310.63;;;7.93;100.00
22440;BME280;11387;51.612;7.210;2024-02-21T04:23:10;162327.94;;;7.99;100.00
22440;BME280;11387;51.612;7.210;2024-02-21T04:25:33;162326.59;;;7.99;100.00
22440;BME280;11387;51.612;7.210;2024-02-21T04:27:57;162305.28;;;7.91;100.00
22440;BME280;11387;51.612;7.210;2024-02-21T04:30:20;162309.28;;;7.92;100.00
22440;BME280;11387;51.612;7.210;2024-02-21T04:32:44;162306.63;;;7.91;100.00
22440;BME280;11387;51.612;7.210;2024-02-21T04:35:08;162318.59;;;7.96;100.00
22440;BME280;11387;51.612;7.210;2024-02-21T04:37:31;162299.94;;;7.89;100.00
22440;BME280;11387;51.612;7.210;2024-02-21T04:39:56;162283.94;;;7.83;100.00
22440;BME280;11387;51.612;7.210;2024-02-21T04:42:21;162286.59;;;7.84;100.00
22440;BME280;11387;51.612;7.210;2024-02-21T04:44:44;162287.94;;;7.84;100.00
22440;BME280;11387;51.612;7.210;2024-02-21T04:47:08;162307.97;;;7.92;100.00
22440;BME280;11387;51.612;7.210;2024-02-21T04:49:32;162299.94;;;7.89;100.00
22440;BME280;11387;51.612;7.210;2024-02-21T04:51:56;162278.59;;;7.81;100.00
22440;BME280;11387;51.612;7.210;2024-02-21T04:54:19;162287.94;;;7.84;100.00
22440;BME280;11387;51.612;7.210;2024-02-21T04:56:44;162283.94;;;7.83;100.00
22440;BME280;11387;51.612;7.210;2024-02-21T04:59:07;162273.25;;;7.78;100.00
22440;BME280;11387;51.612;7.210;2024-02-21T05:01:31;162305.28;;;7.91;100.00
22440;BME280;11387;51.612;7.210;2024-02-21T05:03:55;162286.59;;;7.84;100.00
22440;BME280;11387;51.612;7.210;2024-02-21T05:06:18;162294.59;;;7.87;100.00
22440;BME280;11387;51.612;7.210;2024-02-21T05:08:42;162293.28;;;7.86;100.00
22440;BME280;11387;51.612;7.210;2024-02-21T05:11:05;162306.63;;;7.91;100.00
22440;BME280;11387;51.612;7.210;2024-02-21T05:13:30;162297.28;;;7.88;100.00
22440;BME280;11387;51.612;7.210;2024-02-21T05:15:54;162286.59;;;7.84;100.00
22440;BME280;11387;51.612;7.210;2024-02-21T05:18:17;162297.28;;;7.88;100.00
22440;BME280;11387;51.612;7.210;2024-02-21T05:20:41;162297.28;;;7.88;100.00
22440;BME280;11387;51.612;7.210;2024-02-21T05:23:05;162318.59;;;7.96;100.00
22440;BME280;11387;51.612;7.210;2024-02-21T05:25:28;162286.59;;;7.84;100.00
22440;BME280;11387;51.612;7.210;2024-02-21T05:27:52;162290.59;;;7.85;100.00
22440;BME280;11387;51.612;7.210;2024-02-21T05:30:19;162278.59;;;7.81;100.00
22440;BME280;11387;51.612;7.210;2024-02-21T05:32:42;162294.59;;;7.87;100.00
22440;BME280;11387;51.612;7.210;2024-02-21T05:35:07;162310.63;;;7.93;100.00
22440;BME280;11387;51.612;7.210;2024-02-21T05:37:31;162309.28;;;7.92;100.00
22440;BME280;11387;51.612;7.210;2024-02-21T05:39:55;162297.28;;;7.88;100.00
22440;BME280;11387;51.612;7.210;2024-02-21T05:42:18;162326.59;;;7.99;100.00
22440;BME280;11387;51.612;7.210;2024-02-21T05:44:42;162313.31;;;7.94;100.00
22440;BME280;11387;51.612;7.210;2024-02-21T05:47:06;162323.94;;;7.98;100.00
22440;BME280;11387;51.612;7.210;2024-02-21T05:49:32;162322.59;;;7.97;100.00
22440;BME280;11387;51.612;7.210;2024-02-21T05:51:56;162321.25;;;7.97;100.00
22440;BME280;11387;51.612;7.210;2024-02-21T05:54:19;162321.25;;;7.97;100.00
22440;BME280;11387;51.612;7.210;2024-02-21T05:56:46;162314.63;;;7.94;100.00
22440;BME280;11387;51.612;7.210;2024-02-21T05:59:09;162303.94;;;7.90;100.00
22440;BME280;11387;51.612;7.210;2024-02-21T06:01:33;162331.94;;;8.01;100.00
22440;BME280;11387;51.612;7.210;2024-02-21T06:03:58;162326.59;;;7.99;100.00
22440;BME280;11387;51.612;7.210;2024-02-21T06:06:22;162345.31;;;8.06;100.00
22440;BME280;11387;51.612;7.210;2024-02-21T06:08:46;162326.59;;;7.99;100.00
22440;BME280;11387;51.612;7.210;2024-02-21T06:11:09;162323.94;;;7.98;100.00
22440;BME280;11387;51.612;7.210;2024-02-21T06:13:38;162334.63;;;8.02;100.00
22440;BME280;11387;51.612;7.210;2024-02-21T06:16:01;162309.28;;;7.92;100.00
22440;BME280;11387;51.612;7.210;2024-02-21T06:18:25;162333.28;;;8.01;100.00
22440;BME280;11387;51.612;7.210;2024-02-21T06:20:50;162315.97;;;7.95;100.00
22440;BME280;11387;51.612;7.210;2024-02-21T06:23:16;162334.63;;;8.02;100.00
22440;BME280;11387;51.612;7.210;2024-02-21T06:25:40;162333.28;;;8.01;100.00
22440;BME280;11387;51.612;7.210;2024-02-21T06:28:04;162337.28;;;8.03;100.00
22440;BME280;11387;51.612;7.210;2024-02-21T06:30:28;162350.66;;;8.08;100.00
22440;BME280;11387;51.612;7.210;2024-02-21T06:32:51;162333.28;;;8.01;100.00
22440;BME280;11387;51.612;7.210;2024-02-21T06:35:18;162338.63;;;8.03;100.00
22440;BME280;11387;51.612;7.210;2024-02-21T06:37:44;162315.97;;;7.95;100.00
22440;BME280;11387;51.612;7.210;2024-02-21T06:40:09;162345.31;;;8.06;100.00
22440;BME280;11387;51.612;7.210;2024-02-21T06:42:33;162355.97;;;8.10;100.00
22440;BME280;11387;51.612;7.210;2024-02-21T06:44:56;162349.31;;;8.07;100.00
22440;BME280;11387;51.612;7.210;2024-02-21T06:47:20;162338.63;;;8.03;100.00
22440;BME280;11387;51.612;7.210;2024-02-21T06:49:48;162339.97;;;8.04;100.00
22440;BME280;11387;51.612;7.210;2024-02-21T06:52:12;162353.31;;;8.09;100.00
22440;BME280;11387;51.612;7.210;2024-02-21T06:54:40;162357.31;;;8.10;100.00
22440;BME280;11387;51.612;7.210;2024-02-21T06:57:03;162374.69;;;8.17;100.00
22440;BME280;11387;51.612;7.210;2024-02-21T06:59:27;162393.38;;;8.24;100.00
22440;BME280;11387;51.612;7.210;2024-02-21T07:01:53;162384.03;;;8.21;100.00
22440;BME280;11387;51.612;7.210;2024-02-21T07:04:17;162389.38;;;8.23;100.00
22440;BME280;11387;51.612;7.210;2024-02-21T07:06:40;162382.69;;;8.20;100.00
22440;BME280;11387;51.612;7.210;2024-02-21T07:09:04;162390.72;;;8.23;100.00
22440;BME280;11387;51.612;7.210;2024-02-21T07:11:29;162382.69;;;8.20;100.00
22440;BME280;11387;51.612;7.210;2024-02-21T07:13:53;162397.34;;;8.26;100.00
22440;BME280;11387;51.612;7.210;2024-02-21T07:16:16;162409.34;;;8.30;100.00
22440;BME280;11387;51.612;7.210;2024-02-21T07:18:40;162405.34;;;8.29;100.00
22440;BME280;11387;51.612;7.210;2024-02-21T07:21:03;162401.34;;;8.27;100.00
22440;BME280;11387;51.612;7.210;2024-02-21T07:23:27;162401.34;;;8.27;100.00
22440;BME280;11387;51.612;7.210;2024-02-21T07:25:51;162386.69;;;8.22;100.00
22440;BME280;11387;51.612;7.210;2024-02-21T07:28:16;162404.00;;;8.28;100.00
22440;BME280;11387;51.612;7.210;2024-02-21T07:30:39;162417.41;;;8.33;100.00
22440;BME280;11387;51.612;7.210;2024-02-21T07:33:03;162434.78;;;8.40;100.00
22440;BME280;11387;51.612;7.210;2024-02-21T07:35:29;162441.47;;;8.42;100.00
22440;BME280;11387;51.612;7.210;2024-02-21T07:37:52;162433.44;;;8.39;100.00
22440;BME280;11387;51.612;7.210;2024-02-21T07:40:16;162425.44;;;8.36;100.00
22440;BME280;11387;51.612;7.210;2024-02-21T07:42:40;162441.47;;;8.42;100.00
22440;BME280;11387;51.612;7.210;2024-02-21T07:45:07;162450.81;;;8.46;100.00
22440;BME280;11387;51.612;7.210;2024-02-21T07:47:31;162489.50;;;8.61;100.00
22440;BME280;11387;51.612;7.210;2024-02-21T07:49:54;162494.84;;;8.63;100.00
22440;BME280;11387;51.612;7.210;2024-02-21T07:52:18;162484.16;;;8.59;100.00
22440;BME280;11387;51.612;7.210;2024-02-21T07:54:42;162478.81;;;8.57;100.00
22440;BME280;11387;51.612;7.210;2024-02-21T07:57:05;162476.19;;;8.56;100.00
22440;BME280;11387;51.612;7.210;2024-02-21T07:59:29;162482.81;;;8.58;100.00
22440;BME280;11387;51.612;7.210;2024-02-21T08:01:57;162485.50;;;8.59;100.00
22440;BME280;11387;51.612;7.210;2024-02-21T08:04:21;162489.50;;;8.61;100.00
22440;BME280;11387;51.612;7.210;2024-02-21T08:06:44;162492.19;;;8.62;100.00
22440;BME280;11387;51.612;7.210;2024-02-21T08:09:29;162502.88;;;8.66;100.00
22440;BME280;11387;51.612;7.210;2024-02-21T08:11:54;162493.50;;;8.62;100.00
22440;BME280;11387;51.612;7.210;2024-02-21T08:14:17;162518.91;;;8.72;100.00
22440;BME280;11387;51.612;7.210;2024-02-21T08:16:42;162506.88;;;8.67;100.00
22440;BME280;11387;51.612;7.210;2024-02-21T08:19:07;162502.88;;;8.66;100.00
22440;BME280;11387;51.612;7.210;2024-02-21T08:21:31;162506.88;;;8.67;100.00
22440;BME280;11387;51.612;7.210;2024-02-21T08:23:54;162492.19;;;8.62;100.00
22440;BME280;11387;51.612;7.210;2024-02-21T08:26:18;162532.25;;;8.77;100.00
22440;BME280;11387;51.612;7.210;2024-02-21T08:28:42;162537.59;;;8.79;100.00
22440;BME280;11387;51.612;7.210;2024-02-21T08:31:05;162557.59;;;8.87;99.77
22440;BME280;11387;51.612;7.210;2024-02-21T08:33:29;162585.66;;;8.97;99.49
22440;BME280;11387;51.612;7.210;2024-02-21T08:35:54;162604.38;;;9.04;98.27
22440;BME280;11387;51.612;7.210;2024-02-21T08:38:18;162617.75;;;9.09;97.60
22440;BME280;11387;51.612;7.210;2024-02-21T08:40:42;162585.66;;;8.97;97.56
22440;BME280;11387;51.612;7.210;2024-02-21T08:43:05;162548.31;;;8.83;98.34
22440;BME280;11387;51.612;7.210;2024-02-21T08:45:29;162558.94;;;8.87;98.62
22440;BME280;11387;51.612;7.210;2024-02-21T08:47:52;162553.63;;;8.85;97.79
22440;BME280;11387;51.612;7.210;2024-02-21T08:50:16;162561.59;;;8.88;97.79
22440;BME280;11387;51.612;7.210;2024-02-21T08:52:51;162617.75;;;9.09;97.44
22440;BME280;11387;51.612;7.210;2024-02-21T08:55:15;162645.75;;;9.20;96.62
22440;BME280;11387;51.612;7.210;2024-02-21T08:57:38;162652.44;;;9.23;95.64
22440;BME280;11387;51.612;7.210;2024-02-21T09:00:04;162680.50;;;9.33;94.68
22440;BME280;11387;51.612;7.210;2024-02-21T09:02:31;162676.50;;;9.32;94.97
22440;BME280;11387;51.612;7.210;2024-02-21T09:04:55;162619.06;;;9.10;95.21
22440;BME280;11387;51.612;7.210;2024-02-21T09:07:18;162652.44;;;9.23;96.18
22440;BME280;11387;51.612;7.210;2024-02-21T09:09:44;162689.88;;;9.37;96.13
22440;BME280;11387;51.612;7.210;2024-02-21T09:12:08;162660.44;;;9.26;96.47
22440;BME280;11387;51.612;7.210;2024-02-21T09:14:31;162676.50;;;9.32;96.79
22440;BME280;11387;51.612;7.210;2024-02-21T09:16:55;162691.19;;;9.37;96.04
22440;BME280;11387;51.612;7.210;2024-02-21T09:19:19;162641.75;;;9.19;95.97
22440;BME280;11387;51.612;7.210;2024-02-21T09:21:43;162607.03;;;9.05;96.73
22440;BME280;11387;51.612;7.210;2024-02-21T09:24:06;162595.03;;;9.01;96.46
22440;BME280;11387;51.612;7.210;2024-02-21T09:26:31;162592.34;;;9.00;96.47
22440;BME280;11387;51.612;7.210;2024-02-21T09:28:54;162620.41;;;9.10;97.07
22440;BME280;11387;51.612;7.210;2024-02-21T09:31:19;162587.00;;;8.98;97.22
22440;BME280;11387;51.612;7.210;2024-02-21T09:33:43;162572.31;;;8.92;97.78
22440;BME280;11387;51.612;7.210;2024-02-21T09:36:07;162574.97;;;8.93;97.58
22440;BME280;11387;51.612;7.210;2024-02-21T09:38:31;162572.31;;;8.92;98.28
22440;BME280;11387;51.612;7.210;2024-02-21T09:40:59;162580.31;;;8.95;97.64
22440;BME280;11387;51.612;7.210;2024-02-21T09:43:27;162545.63;;;8.82;97.69
22440;BME280;11387;51.612;7.210;2024-02-21T09:45:52;162615.06;;;9.08;96.81
22440;BME280;11387;51.612;7.210;2024-02-21T09:48:27;162683.19;;;9.34;94.19
22440;BME280;11387;51.612;7.210;2024-02-21T09:50:59;162649.75;;;9.22;94.40
22440;BME280;11387;51.612;7.210;2024-02-21T09:53:24;162680.50;;;9.33;93.87
22440;BME280;11387;51.612;7.210;2024-02-21T09:55:48;162700.56;;;9.41;93.04
22440;BME280;11387;51.612;7.210;2024-02-21T09:58:12;162764.66;;;9.65;91.62
22440;BME280;11387;51.612;7.210;2024-02-21T10:00:37;162675.16;;;9.31;91.64
22440;BME280;11387;51.612;7.210;2024-02-21T10:03:01;162680.50;;;9.33;92.30
22440;BME280;11387;51.612;7.210;2024-02-21T10:05:29;162737.94;;;9.55;91.79
22440;BME280;11387;51.612;7.210;2024-02-21T10:07:55;162727.25;;;9.51;91.68
22440;BME280;11387;51.612;7.210;2024-02-21T10:10:19;162727.25;;;9.51;91.52
22440;BME280;11387;51.612;7.210;2024-02-21T10:12:50;162695.22;;;9.39;91.65
22440;BME280;11387;51.612;7.210;2024-02-21T10:15:20;162708.56;;;9.44;92.14
22440;BME280;11387;51.612;7.210;2024-02-21T10:17:46;162695.22;;;9.39;90.90
22440;BME280;11387;51.612;7.210;2024-02-21T10:20:11;162673.81;;;9.31;91.45
22440;BME280;11387;51.612;7.210;2024-02-21T10:22:35;162679.16;;;9.33;91.58
22440;BME280;11387;51.612;7.210;2024-02-21T10:25:07;162600.38;;;9.03;92.85
22440;BME280;11387;51.612;7.210;2024-02-21T10:27:30;162604.38;;;9.04;93.34
22440;BME280;11387;51.612;7.210;2024-02-21T10:29:54;162631.09;;;9.15;92.85
22440;BME280;11387;51.612;7.210;2024-02-21T10:32:17;162637.78;;;9.17;92.72
22440;BME280;11387;51.612;7.210;2024-02-21T10:34:42;162677.84;;;9.32;92.18
22440;BME280;11387;51.612;7.210;2024-02-21T10:37:07;162649.75;;;9.22;92.52
22440;BME280;11387;51.612;7.210;2024-02-21T10:39:32;162643.06;;;9.19;92.62
22440;BME280;11387;51.612;7.210;2024-02-21T10:41:59;162665.81;;;9.28;91.51
22440;BME280;11387;51.612;7.210;2024-02-21T10:44:23;162699.22;;;9.40;91.60
22440;BME280;11387;51.612;7.210;2024-02-21T10:46:48;162665.81;;;9.28;91.13
22440;BME280;11387;51.612;7.210;2024-02-21T10:49:16;162692.53;;;9.38;91.77
22440;BME280;11387;51.612;7.210;2024-02-21T10:51:45;162649.75;;;9.22;92.83
22440;BME280;11387;51.612;7.210;2024-02-21T10:54:17;162664.47;;;9.27;92.35
22440;BME280;11387;51.612;7.210;2024-02-21T10:56:45;162643.06;;;9.19;92.17
22440;BME280;11387;51.612;7.210;2024-02-21T10:59:13;162652.44;;;9.23;92.05
22440;BME280;11387;51.612;7.210;2024-02-21T11:01:37;162673.81;;;9.31;92.01
22440;BME280;11387;51.612;7.210;2024-02-21T11:04:03;162663.13;;;9.27;91.87
22440;BME280;11387;51.612;7.210;2024-02-21T11:06:28;162679.16;;;9.33;91.45
22440;BME280;11387;51.612;7.210;2024-02-21T11:09:01;162733.91;;;9.54;89.83
22440;BME280;11387;51.612;7.210;2024-02-21T11:11:27;162736.59;;;9.55;89.79
22440;BME280;11387;51.612;7.210;2024-02-21T11:14:05;162733.91;;;9.54;89.28
22440;BME280;11387;51.612;7.210;2024-02-21T11:16:35;162748.63;;;9.59;89.14
22440;BME280;11387;51.612;7.210;2024-02-21T11:19:04;162783.41;;;9.72;87.76
22440;BME280;11387;51.612;7.210;2024-02-21T11:21:33;162778.03;;;9.70;87.08
22440;BME280;11387;51.612;7.210;2024-02-21T11:23:56;162775.38;;;9.69;86.53
22440;BME280;11387;51.612;7.210;2024-02-21T11:26:22;162778.03;;;9.70;87.07
22440;BME280;11387;51.612;7.210;2024-02-21T11:28:56;162796.75;;;9.77;87.02
22440;BME280;11387;51.612;7.210;2024-02-21T11:31:19;162753.97;;;9.61;86.04
22440;BME280;11387;51.612;7.210;2024-02-21T11:33:43;162775.38;;;9.69;86.69
22440;BME280;11387;51.612;7.210;2024-02-21T11:36:10;162768.69;;;9.67;86.43
22440;BME280;11387;51.612;7.210;2024-02-21T11:38:33;162812.75;;;9.84;85.86
22440;BME280;11387;51.612;7.210;2024-02-21T11:40:57;162878.28;;;10.08;84.96
22440;BME280;11387;51.612;7.210;2024-02-21T11:43:23;162967.84;;;10.42;83.16
22440;BME280;11387;51.612;7.210;2024-02-21T11:45:46;162982.56;;;10.48;81.50
22440;BME280;11387;51.612;7.210;2024-02-21T11:48:10;162959.88;;;10.39;81.86
22440;BME280;11387;51.612;7.210;2024-02-21T11:50:34;162925.09;;;10.26;82.25
22440;BME280;11387;51.612;7.210;2024-02-21T11:52:58;162866.25;;;10.04;83.14
22440;BME280;11387;51.612;7.210;2024-02-21T11:55:22;162836.81;;;9.93;84.00
22440;BME280;11387;51.612;7.210;2024-02-21T11:57:47;162838.16;;;9.93;84.43
22440;BME280;11387;51.612;7.210;2024-02-21T12:00:14;162850.19;;;9.98;83.17
22440;BME280;11387;51.612;7.210;2024-02-21T12:02:39;162827.47;;;9.89;83.02
22440;BME280;11387;51.612;7.210;2024-02-21T12:05:03;162850.19;;;9.98;82.80
22440;BME280;11387;51.612;7.210;2024-02-21T12:07:27;162931.78;;;10.29;82.23
22440;BME280;11387;51.612;7.210;2024-02-21T12:09:52;163052.06;;;10.74;80.81
22440;BME280;11387;51.612;7.210;2024-02-21T12:12:20;163152.38;;;11.12;78.34
22440;BME280;11387;51.612;7.210;2024-02-21T12:14:44;163040.09;;;10.70;78.57
22440;BME280;11387;51.612;7.210;2024-02-21T12:17:08;162991.94;;;10.52;79.61
22440;BME280;11387;51.612;7.210;2024-02-21T12:19:33;162937.13;;;10.31;80.04
22440;BME280;11387;51.612;7.210;2024-02-21T12:21:58;163013.34;;;10.60;79.47
22440;BME280;11387;51.612;7.210;2024-02-21T12:24:23;163053.41;;;10.75;78.20
22440;BME280;11387;51.612;7.210;2024-02-21T12:26:47;163049.41;;;10.73;77.50
22440;BME280;11387;51.612;7.210;2024-02-21T12:29:10;162965.16;;;10.41;78.14
22440;BME280;11387;51.612;7.210;2024-02-21T12:31:34;162934.47;;;10.30;78.38
22440;BME280;11387;51.612;7.210;2024-02-21T12:33:59;162951.84;;;10.36;77.10
22440;BME280;11387;51.612;7.210;2024-02-21T12:36:22;162970.53;;;10.43;77.40
22440;BME280;11387;51.612;7.210;2024-02-21T12:38:47;162919.75;;;10.24;77.78